Time;durP1;ratioP1;P1;durP2;ratioP2;P2;SDS_P1;SDS_P2;PMS_P1;PMS_P2;Temp;Humidity;BMP_temperature;BMP_pressure;BME280_temperature;BME280_humidity;BME280_pressure;Samples;Min_cycle;Max_cycle;Signal;HPM_P1;HPM_P2
2022/06/18 00:02:15;;;;;;;;;;;13.70;99.90;;;;;;5125544;27;19922;-53
2022/06/18 00:04:55;;;;;;;;;;;13.60;99.90;;;;;;5125563;27;19912;-52
2022/06/18 00:07:36;;;;;;;;;;;13.60;99.90;;;;;;5126085;27;19916;-53
2022/06/18 00:10:18;;;;;;;;;;;13.60;99.90;;;;;;5113990;27;19916;-53
2022/06/18 00:16:05;;;;;;;;;;;13.40;99.90;;;;;;5125904;27;19912;-52
2022/06/18 00:18:45;;;;;;;;;;;13.40;99.90;;;;;;5125972;27;19911;-53
2022/06/18 00:21:26;;;;;;;;;;;13.40;99.90;;;;;;5125776;27;19911;-53
2022/06/18 00:24:13;;;;;;;;;;;13.30;99.90;;;;;;5126301;27;19912;-52
2022/06/18 00:26:52;;;;;;;;;;;13.20;99.90;;;;;;5125185;27;20358;-52
2022/06/18 00:29:32;;;;;;;;;;;13.10;99.90;;;;;;5120226;27;19912;-52
2022/06/18 00:32:12;;;;;;;;;;;13.00;99.90;;;;;;5125718;27;19920;-53
2022/06/18 00:34:54;;;;;;;;;;;12.90;99.90;;;;;;5125984;27;19918;-52
2022/06/18 00:37:35;;;;;;;;;;;12.90;99.90;;;;;;5125858;27;19912;-52
2022/06/18 00:40:16;;;;;;;;;;;12.90;99.90;;;;;;5125116;27;19915;-52
2022/06/18 00:42:56;;;;;;;;;;;12.90;99.90;;;;;;5126048;27;19911;-52
2022/06/18 00:45:36;;;;;;;;;;;12.90;99.90;;;;;;5105412;27;19957;-52
2022/06/18 00:48:20;;;;;;;;;;;12.90;99.90;;;;;;5126422;27;19911;-54
2022/06/18 00:51:03;;;;;;;;;;;12.90;99.90;;;;;;5156457;27;19925;-53
2022/06/18 00:53:45;;;;;;;;;;;12.80;99.90;;;;;;5126256;27;20340;-56
2022/06/18 00:56:30;;;;;;;;;;;12.80;99.90;;;;;;5125726;27;19911;-53
2022/06/18 00:59:13;;;;;;;;;;;12.70;99.90;;;;;;5123519;27;20396;-53
2022/06/18 01:01:55;;;;;;;;;;;12.70;99.90;;;;;;5126070;27;19911;-54
2022/06/18 01:04:36;;;;;;;;;;;12.60;99.90;;;;;;5120346;27;21083;-53
2022/06/18 01:07:19;;;;;;;;;;;12.50;99.90;;;;;;5116574;27;19918;-53
2022/06/18 01:10:00;;;;;;;;;;;12.50;99.90;;;;;;5116461;27;19966;-54
2022/06/18 01:12:40;;;;;;;;;;;12.40;99.90;;;;;;5125624;27;19918;-55
2022/06/18 01:15:21;;;;;;;;;;;12.50;99.90;;;;;;5124742;27;19918;-54
2022/06/18 01:18:04;;;;;;;;;;;12.40;99.90;;;;;;5104837;27;19957;-54
2022/06/18 01:20:47;;;;;;;;;;;12.40;99.90;;;;;;5110259;27;20285;-54
2022/06/18 01:23:30;;;;;;;;;;;12.30;99.90;;;;;;5125482;27;20332;-53
2022/06/18 01:26:11;;;;;;;;;;;12.30;99.90;;;;;;5104599;27;20424;-55
2022/06/18 01:28:55;;;;;;;;;;;12.20;99.90;;;;;;5105128;27;19913;-55
2022/06/18 01:31:36;;;;;;;;;;;12.10;99.90;;;;;;5104989;27;19912;-55
2022/06/18 01:34:16;;;;;;;;;;;12.10;99.90;;;;;;5116834;27;20423;-53
2022/06/18 01:37:03;;;;;;;;;;;12.10;99.90;;;;;;5125391;27;19912;-53
2022/06/18 01:39:47;;;;;;;;;;;12.10;99.90;;;;;;5117577;27;19912;-55
2022/06/18 01:42:29;;;;;;;;;;;12.10;99.90;;;;;;5105480;27;19926;-54
2022/06/18 01:45:11;;;;;;;;;;;12.10;99.90;;;;;;5125432;27;20369;-54
2022/06/18 01:47:59;;;;;;;;;;;12.00;99.90;;;;;;5085109;28;19913;-55
2022/06/18 01:50:51;;;;;;;;;;;11.80;99.90;;;;;;5110153;27;19919;-55
2022/06/18 01:53:35;;;;;;;;;;;11.90;99.90;;;;;;5126045;27;20130;-53
2022/06/18 01:56:18;;;;;;;;;;;11.80;99.90;;;;;;5105304;27;19916;-53
2022/06/18 01:59:00;;;;;;;;;;;11.80;99.90;;;;;;5125257;27;19912;-56
2022/06/18 02:01:48;;;;;;;;;;;11.70;99.90;;;;;;5105739;27;19912;-54
2022/06/18 02:04:31;;;;;;;;;;;11.60;99.90;;;;;;5126141;27;20312;-53
2022/06/18 02:07:12;;;;;;;;;;;11.60;99.90;;;;;;5125415;27;19912;-55
2022/06/18 02:09:54;;;;;;;;;;;11.60;99.90;;;;;;5117091;27;20423;-53
2022/06/18 02:12:37;;;;;;;;;;;11.50;99.90;;;;;;5125545;27;20410;-54
2022/06/18 02:15:20;;;;;;;;;;;11.60;99.90;;;;;;5105108;27;19957;-54
2022/06/18 02:18:03;;;;;;;;;;;11.60;99.90;;;;;;5126078;27;20212;-53
2022/06/18 02:20:45;;;;;;;;;;;11.60;99.90;;;;;;5105347;27;19916;-54
2022/06/18 02:23:25;;;;;;;;;;;11.60;99.90;;;;;;5126037;27;19912;-53
2022/06/18 02:26:06;;;;;;;;;;;11.50;99.90;;;;;;5104902;27;19919;-55
2022/06/18 02:28:47;;;;;;;;;;;11.50;99.90;;;;;;5125803;27;19911;-54
2022/06/18 02:31:27;;;;;;;;;;;11.50;99.90;;;;;;5105089;27;19916;-55
2022/06/18 02:34:11;;;;;;;;;;;11.50;99.90;;;;;;5125377;27;19931;-55
2022/06/18 02:36:52;;;;;;;;;;;11.50;99.90;;;;;;5125828;27;20320;-55
2022/06/18 02:39:36;;;;;;;;;;;11.40;99.90;;;;;;5119491;27;20377;-53
2022/06/18 02:42:19;;;;;;;;;;;11.40;99.90;;;;;;5105098;27;19930;-54
2022/06/18 02:45:00;;;;;;;;;;;11.30;99.90;;;;;;5125923;27;19918;-53
2022/06/18 02:47:41;;;;;;;;;;;11.20;99.90;;;;;;5125502;27;19919;-52
2022/06/18 02:50:22;;;;;;;;;;;11.20;99.90;;;;;;5125655;27;19912;-54
2022/06/18 02:53:02;;;;;;;;;;;11.20;99.90;;;;;;5126345;27;19911;-55
2022/06/18 02:55:45;;;;;;;;;;;11.10;99.90;;;;;;5125591;27;19912;-54
2022/06/18 02:58:26;;;;;;;;;;;11.10;99.90;;;;;;5126263;27;19912;-53
2022/06/18 03:01:08;;;;;;;;;;;11.10;99.90;;;;;;5107103;27;19918;-55
2022/06/18 03:03:51;;;;;;;;;;;11.10;99.90;;;;;;5105933;27;19912;-53
2022/06/18 03:06:33;;;;;;;;;;;11.10;99.90;;;;;;5123748;27;19922;-56
2022/06/18 03:09:13;;;;;;;;;;;11.10;99.90;;;;;;5125685;27;19920;-53
2022/06/18 03:14:53;;;;;;;;;;;11.20;99.90;;;;;;5114003;27;19918;-52
2022/06/18 03:17:34;;;;;;;;;;;11.10;99.90;;;;;;5125863;27;19912;-53
2022/06/18 03:20:17;;;;;;;;;;;11.10;99.90;;;;;;5126249;27;19912;-54
2022/06/18 03:22:57;;;;;;;;;;;11.20;99.90;;;;;;5125521;27;19934;-55
2022/06/18 03:25:39;;;;;;;;;;;11.30;99.90;;;;;;5105319;27;20427;-54
2022/06/18 03:28:21;;;;;;;;;;;11.40;99.90;;;;;;5126070;27;19912;-54
2022/06/18 03:31:02;;;;;;;;;;;11.50;99.90;;;;;;5108034;27;20254;-53
2022/06/18 03:33:43;;;;;;;;;;;11.70;99.90;;;;;;5083909;27;19954;-54
2022/06/18 03:36:23;;;;;;;;;;;11.80;99.90;;;;;;5124574;27;19916;-55
2022/06/18 03:39:03;;;;;;;;;;;11.90;99.90;;;;;;5124866;27;20316;-54
2022/06/18 03:41:44;;;;;;;;;;;12.00;99.90;;;;;;5102992;27;19912;-53
2022/06/18 03:44:26;;;;;;;;;;;12.10;99.90;;;;;;5111610;27;20378;-54
2022/06/18 03:47:06;;;;;;;;;;;12.20;99.90;;;;;;5118540;27;19912;-54
2022/06/18 03:49:50;;;;;;;;;;;12.40;99.90;;;;;;5124993;27;19920;-54
2022/06/18 03:52:30;;;;;;;;;;;12.60;99.90;;;;;;5099399;27;19916;-55
2022/06/18 03:55:12;;;;;;;;;;;12.70;99.90;;;;;;5124644;27;19911;-54
2022/06/18 03:57:53;;;;;;;;;;;12.70;99.90;;;;;;5145053;27;19911;-55
2022/06/18 04:00:34;;;;;;;;;;;12.80;99.90;;;;;;5126099;27;19916;-53
2022/06/18 04:03:15;;;;;;;;;;;12.90;99.90;;;;;;5116232;27;19985;-52
2022/06/18 04:05:55;;;;;;;;;;;13.00;99.90;;;;;;5110976;27;19913;-53
2022/06/18 04:08:35;;;;;;;;;;;13.10;99.90;;;;;;5104483;27;19930;-54
2022/06/18 04:11:17;;;;;;;;;;;13.30;99.90;;;;;;5123959;27;19916;-52
2022/06/18 04:13:56;;;;;;;;;;;13.60;99.90;;;;;;5125491;27;20361;-53
2022/06/18 04:16:54;;;;;;;;;;;14.20;99.90;;;;;;5124783;27;20188;-54
2022/06/18 04:19:37;;;;;;;;;;;15.30;99.90;;;;;;5126005;27;19911;-53
2022/06/18 04:22:17;;;;;;;;;;;16.60;99.90;;;;;;5101584;27;19916;-53
2022/06/18 04:25:12;;;;;;;;;;;17.90;99.90;;;;;;5104034;27;19961;-53
2022/06/18 04:27:54;;;;;;;;;;;18.90;99.90;;;;;;5125508;27;19916;-55
2022/06/18 04:30:34;;;;;;;;;;;19.60;99.90;;;;;;5112035;27;19960;-53
2022/06/18 04:33:20;;;;;;;;;;;19.90;99.90;;;;;;5126197;27;19915;-54
2022/06/18 04:36:06;;;;;;;;;;;20.10;99.90;;;;;;5125789;27;19911;-54
2022/06/18 04:38:48;;;;;;;;;;;20.20;99.90;;;;;;5126521;27;20115;-53
2022/06/18 04:41:48;;;;;;;;;;;20.30;99.90;;;;;;5125973;27;20323;-52
2022/06/18 04:44:38;;;;;;;;;;;20.40;99.90;;;;;;5126371;27;19912;-53
2022/06/18 04:47:27;;;;;;;;;;;20.80;99.90;;;;;;5125884;27;20317;-54
2022/06/18 04:50:15;;;;;;;;;;;21.20;99.90;;;;;;5124894;27;20144;-52
2022/06/18 04:52:55;;;;;;;;;;;21.70;99.90;;;;;;5105983;27;19986;-52
2022/06/18 04:55:36;;;;;;;;;;;22.10;96.70;;;;;;5104749;27;19912;-53
2022/06/18 04:58:16;;;;;;;;;;;22.40;92.60;;;;;;5124661;27;20316;-53
2022/06/18 05:01:04;;;;;;;;;;;22.50;84.40;;;;;;5086302;27;19931;-53
2022/06/18 05:03:52;;;;;;;;;;;22.20;88.80;;;;;;5122318;27;20169;-53
2022/06/18 05:06:49;;;;;;;;;;;22.10;94.10;;;;;;5101651;27;19913;-53
2022/06/18 05:09:43;;;;;;;;;;;22.30;91.30;;;;;;5101341;27;20415;-54
2022/06/18 05:12:37;;;;;;;;;;;22.90;87.80;;;;;;5120323;27;19922;-52
2022/06/18 05:15:37;;;;;;;;;;;23.40;78.20;;;;;;5123693;27;19920;-54
2022/06/18 05:18:18;;;;;;;;;;;23.70;69.10;;;;;;5128163;27;19920;-55
2022/06/18 05:21:03;;;;;;;;;;;23.90;66.40;;;;;;5097836;27;20345;-52
2022/06/18 05:23:44;;;;;;;;;;;24.10;65.60;;;;;;5123520;27;19918;-53
2022/06/18 05:26:30;;;;;;;;;;;24.00;67.40;;;;;;5104595;27;19912;-55
2022/06/18 05:29:10;;;;;;;;;;;24.20;68.90;;;;;;5123443;27;20120;-52
2022/06/18 05:31:50;;;;;;;;;;;24.20;68.40;;;;;;5125440;27;19912;-53
2022/06/18 05:34:31;;;;;;;;;;;24.50;69.60;;;;;;5125282;27;19925;-53
2022/06/18 05:37:14;;;;;;;;;;;24.70;68.30;;;;;;5125082;27;19911;-52
2022/06/18 05:39:54;;;;;;;;;;;24.50;66.70;;;;;;5117228;27;19912;-54
2022/06/18 05:42:34;;;;;;;;;;;23.90;70.10;;;;;;5125090;27;19926;-54
2022/06/18 05:45:14;;;;;;;;;;;23.20;71.80;;;;;;5123928;27;19911;-54
2022/06/18 05:47:54;;;;;;;;;;;22.80;76.60;;;;;;5103897;27;20478;-53
2022/06/18 05:50:33;;;;;;;;;;;22.60;98.60;;;;;;5111044;27;19913;-54
2022/06/18 05:53:21;;;;;;;;;;;22.50;90.10;;;;;;5118022;27;19912;-53
2022/06/18 05:56:09;;;;;;;;;;;22.30;88.40;;;;;;5125551;27;19918;-54
2022/06/18 05:58:57;;;;;;;;;;;22.20;95.20;;;;;;5125602;27;19912;-54
2022/06/18 06:01:40;;;;;;;;;;;22.30;96.30;;;;;;5125985;27;19916;-54
2022/06/18 06:04:20;;;;;;;;;;;22.40;95.10;;;;;;5105347;27;19926;-55
2022/06/18 06:07:00;;;;;;;;;;;22.50;99.30;;;;;;5105338;27;19945;-56
2022/06/18 06:12:39;;;;;;;;;;;22.70;92.60;;;;;;5105324;27;19912;-55
2022/06/18 06:15:20;;;;;;;;;;;22.80;80.80;;;;;;5125855;27;20133;-56
2022/06/18 06:18:00;;;;;;;;;;;22.90;77.30;;;;;;5105480;27;19966;-55
2022/06/18 06:20:40;;;;;;;;;;;23.00;74.40;;;;;;5110877;27;19912;-55
2022/06/18 06:23:21;;;;;;;;;;;23.10;72.60;;;;;;5126049;27;19945;-54
2022/06/18 06:26:01;;;;;;;;;;;23.30;71.30;;;;;;5125516;27;20396;-56
2022/06/18 06:28:43;;;;;;;;;;;23.40;69.60;;;;;;5126217;27;19918;-54
2022/06/18 06:31:24;;;;;;;;;;;23.40;77.00;;;;;;5105820;27;19958;-54
2022/06/18 06:34:03;;;;;;;;;;;23.50;77.90;;;;;;5105424;27;19926;-54
2022/06/18 06:36:43;;;;;;;;;;;23.50;67.70;;;;;;5105304;27;19945;-55
2022/06/18 06:39:23;;;;;;;;;;;23.70;68.90;;;;;;5146227;27;19916;-56
2022/06/18 06:42:03;;;;;;;;;;;23.70;65.70;;;;;;5106035;27;20294;-54
2022/06/18 06:44:44;;;;;;;;;;;23.80;66.00;;;;;;5126527;27;19916;-55
2022/06/18 06:47:24;;;;;;;;;;;23.80;65.20;;;;;;5144319;22;20270;-56
2022/06/18 06:50:04;;;;;;;;;;;23.90;64.90;;;;;;5103420;27;19926;-56
2022/06/18 06:52:44;;;;;;;;;;;24.00;64.80;;;;;;5102704;27;19954;-58
2022/06/18 06:58:24;;;;;;;;;;;24.00;64.50;;;;;;5123280;27;19915;-57
2022/06/18 07:01:05;;;;;;;;;;;24.00;65.90;;;;;;5102604;27;20426;-57
2022/06/18 07:03:46;;;;;;;;;;;24.00;66.70;;;;;;5123575;27;19911;-56
2022/06/18 07:06:25;;;;;;;;;;;24.00;65.30;;;;;;5123252;27;19915;-57
2022/06/18 07:09:06;;;;;;;;;;;24.20;65.40;;;;;;5103021;27;19916;-56
2022/06/18 07:11:47;;;;;;;;;;;24.30;63.00;;;;;;5123575;27;19916;-56
2022/06/18 07:14:27;;;;;;;;;;;24.40;61.70;;;;;;5102091;27;19919;-58
2022/06/18 07:17:06;;;;;;;;;;;24.50;60.50;;;;;;5098179;27;20008;-57
2022/06/18 07:19:46;;;;;;;;;;;24.60;59.70;;;;;;5115900;27;19922;-59
2022/06/18 07:22:27;;;;;;;;;;;24.60;58.80;;;;;;5103758;27;19912;-59
2022/06/18 07:25:08;;;;;;;;;;;24.70;58.30;;;;;;5102302;27;19945;-57
2022/06/18 07:27:52;;;;;;;;;;;24.80;58.40;;;;;;5115631;27;19922;-57
2022/06/18 07:30:32;;;;;;;;;;;25.00;58.60;;;;;;5123268;27;20126;-56
2022/06/18 07:33:13;;;;;;;;;;;25.10;56.90;;;;;;5113960;27;19927;-57
2022/06/18 07:35:53;;;;;;;;;;;25.20;55.70;;;;;;5100689;27;19912;-56
2022/06/18 07:38:33;;;;;;;;;;;25.30;55.80;;;;;;5107359;27;20303;-56
2022/06/18 07:41:14;;;;;;;;;;;25.30;55.10;;;;;;5161034;27;19919;-57
2022/06/18 07:43:55;;;;;;;;;;;25.40;55.50;;;;;;5124460;27;19916;-57
2022/06/18 07:46:36;;;;;;;;;;;25.50;55.70;;;;;;5122436;27;20286;-56
2022/06/18 07:49:16;;;;;;;;;;;25.60;54.40;;;;;;5129010;27;19911;-57
2022/06/18 07:51:57;;;;;;;;;;;25.70;52.60;;;;;;5124003;27;19912;-56
2022/06/18 07:54:38;;;;;;;;;;;25.80;53.50;;;;;;5122126;27;19912;-57
2022/06/18 07:57:18;;;;;;;;;;;26.00;50.80;;;;;;5118389;27;19916;-57
2022/06/18 07:59:58;;;;;;;;;;;26.10;51.30;;;;;;5123932;27;20549;-56
2022/06/18 08:02:39;;;;;;;;;;;26.30;51.40;;;;;;5123259;27;19916;-56
2022/06/18 08:05:22;;;;;;;;;;;26.30;50.60;;;;;;5123057;27;20334;-56
2022/06/18 08:08:03;;;;;;;;;;;26.40;49.00;;;;;;5103160;27;20323;-57
2022/06/18 08:10:46;;;;;;;;;;;26.40;49.00;;;;;;5122406;27;19926;-57
2022/06/18 08:13:27;;;;;;;;;;;26.50;48.50;;;;;;5123953;27;19911;-56
2022/06/18 08:16:08;;;;;;;;;;;26.60;48.40;;;;;;5123170;27;19911;-55
2022/06/18 08:18:48;;;;;;;;;;;26.80;50.10;;;;;;5103263;27;19930;-56
2022/06/18 08:21:30;;;;;;;;;;;26.90;50.90;;;;;;5120082;27;19916;-57
2022/06/18 08:24:14;;;;;;;;;;;26.90;45.60;;;;;;5102198;27;19934;-56
2022/06/18 08:26:55;;;;;;;;;;;26.90;45.20;;;;;;5120650;27;19915;-56
2022/06/18 08:29:35;;;;;;;;;;;27.10;45.20;;;;;;5124134;27;20005;-56
2022/06/18 08:32:15;;;;;;;;;;;27.20;46.40;;;;;;5103515;27;20418;-56
2022/06/18 08:34:55;;;;;;;;;;;27.40;46.40;;;;;;5103443;27;19919;-56
2022/06/18 08:37:35;;;;;;;;;;;27.50;44.30;;;;;;5117308;27;19918;-56
2022/06/18 08:43:32;;;;;;;;;;;27.70;45.20;;;;;;5120137;27;19915;-56
2022/06/18 08:46:18;;;;;;;;;;;27.80;43.40;;;;;;5142033;27;19919;-56
2022/06/18 08:49:10;;;;;;;;;;;27.90;43.60;;;;;;5085690;27;19954;-55
2022/06/18 08:51:57;;;;;;;;;;;27.90;41.90;;;;;;5123452;27;19919;-55
2022/06/18 08:54:44;;;;;;;;;;;27.90;42.50;;;;;;5124241;27;19912;-55
2022/06/18 08:57:27;;;;;;;;;;;28.00;41.10;;;;;;5097647;27;19927;-56
2022/06/18 09:00:11;;;;;;;;;;;28.00;41.90;;;;;;5098523;27;19994;-56
2022/06/18 09:02:54;;;;;;;;;;;28.10;41.80;;;;;;5082192;27;19934;-56
2022/06/18 09:05:41;;;;;;;;;;;28.10;42.00;;;;;;5121445;27;19915;-55
2022/06/18 09:08:29;;;;;;;;;;;28.20;41.30;;;;;;5123621;27;19911;-55
2022/06/18 09:11:19;;;;;;;;;;;28.10;41.20;;;;;;5101595;27;20438;-55
2022/06/18 09:14:02;;;;;;;;;;;28.20;41.80;;;;;;5123768;27;19916;-56
2022/06/18 09:16:45;;;;;;;;;;;28.30;41.00;;;;;;5119754;27;19912;-57
2022/06/18 09:19:26;;;;;;;;;;;28.40;40.70;;;;;;5120811;27;19915;-56
2022/06/18 09:22:10;;;;;;;;;;;28.50;40.60;;;;;;5082228;28;19916;-56
2022/06/18 09:24:52;;;;;;;;;;;28.60;39.90;;;;;;5122656;27;20380;-55
2022/06/18 09:27:38;;;;;;;;;;;28.60;39.10;;;;;;5116112;27;20374;-56
2022/06/18 09:30:21;;;;;;;;;;;28.60;38.10;;;;;;5143006;27;19911;-57
2022/06/18 09:33:03;;;;;;;;;;;28.60;37.00;;;;;;5080606;28;19912;-56
2022/06/18 09:35:46;;;;;;;;;;;28.70;37.70;;;;;;5121627;27;19911;-56
2022/06/18 09:38:27;;;;;;;;;;;28.80;36.60;;;;;;5109540;27;19913;-56
2022/06/18 09:41:11;;;;;;;;;;;28.90;38.10;;;;;;5104269;27;19912;-56
2022/06/18 09:43:55;;;;;;;;;;;29.00;37.70;;;;;;5121697;27;19920;-56
2022/06/18 09:46:38;;;;;;;;;;;29.20;38.50;;;;;;5079990;28;19916;-57
2022/06/18 09:49:19;;;;;;;;;;;29.30;36.20;;;;;;5109279;27;19916;-57
2022/06/18 09:52:03;;;;;;;;;;;29.40;38.70;;;;;;5119438;27;20282;-56
2022/06/18 09:54:46;;;;;;;;;;;29.50;37.40;;;;;;5123333;27;19912;-57
2022/06/18 09:57:28;;;;;;;;;;;29.50;37.90;;;;;;5117367;27;19916;-55
2022/06/18 10:00:10;;;;;;;;;;;29.60;33.90;;;;;;5124273;27;20315;-56
2022/06/18 10:02:52;;;;;;;;;;;29.60;35.00;;;;;;5119445;27;19916;-55
2022/06/18 10:08:39;;;;;;;;;;;29.80;35.40;;;;;;5108445;27;20258;-56
2022/06/18 10:11:21;;;;;;;;;;;29.80;35.40;;;;;;5101673;27;20417;-56
2022/06/18 10:14:05;;;;;;;;;;;29.90;34.80;;;;;;5125293;27;19919;-55
2022/06/18 10:16:50;;;;;;;;;;;29.90;34.10;;;;;;5101189;27;19912;-56
2022/06/18 10:19:33;;;;;;;;;;;30.00;34.40;;;;;;5123526;27;20411;-55
2022/06/18 10:22:17;;;;;;;;;;;30.10;33.80;;;;;;5079241;28;19917;-56
2022/06/18 10:25:09;;;;;;;;;;;30.20;33.70;;;;;;5085657;27;19926;-57
2022/06/18 10:27:51;;;;;;;;;;;30.20;32.80;;;;;;5114565;27;19912;-56
2022/06/18 10:30:35;;;;;;;;;;;30.40;30.00;;;;;;5124573;27;19912;-56
2022/06/18 10:33:19;;;;;;;;;;;30.50;29.30;;;;;;5103605;27;20380;-56
2022/06/18 10:36:07;;;;;;;;;;;30.50;32.20;;;;;;5101576;27;19938;-56
2022/06/18 10:39:04;;;;;;;;;;;30.60;33.70;;;;;;5103110;27;19930;-56
2022/06/18 10:41:49;;;;;;;;;;;30.70;33.30;;;;;;5123699;27;19919;-57
2022/06/18 10:44:34;;;;;;;;;;;30.80;33.20;;;;;;5125189;27;19918;-59
2022/06/18 10:47:17;;;;;;;;;;;30.70;30.00;;;;;;5099266;27;19927;-57
2022/06/18 10:50:01;;;;;;;;;;;30.70;32.00;;;;;;5124047;27;19916;-56
2022/06/18 10:52:42;;;;;;;;;;;30.70;29.60;;;;;;5150585;27;19960;-56
2022/06/18 10:55:23;;;;;;;;;;;30.80;30.40;;;;;;5101516;27;19916;-57
2022/06/18 10:58:09;;;;;;;;;;;30.80;31.50;;;;;;5091013;27;19930;-56
2022/06/18 11:00:55;;;;;;;;;;;30.80;29.70;;;;;;5124277;27;20325;-56
2022/06/18 11:03:35;;;;;;;;;;;30.90;30.00;;;;;;5104104;27;19915;-56
2022/06/18 11:06:15;;;;;;;;;;;31.10;28.60;;;;;;5102214;27;19969;-56
2022/06/18 11:08:56;;;;;;;;;;;31.10;28.60;;;;;;5084590;27;20340;-56
2022/06/18 11:11:38;;;;;;;;;;;31.10;30.30;;;;;;5114619;27;19920;-56
2022/06/18 11:14:19;;;;;;;;;;;31.10;29.50;;;;;;5147409;27;19915;-56
2022/06/18 11:16:59;;;;;;;;;;;31.30;29.90;;;;;;5101737;27;19919;-56
2022/06/18 11:19:48;;;;;;;;;;;31.40;29.80;;;;;;5123519;27;19912;-57
2022/06/18 11:22:29;;;;;;;;;;;31.60;29.00;;;;;;5104373;27;19920;-56
2022/06/18 11:25:23;;;;;;;;;;;31.60;28.60;;;;;;5123705;27;19919;-56
2022/06/18 11:28:04;;;;;;;;;;;31.60;26.60;;;;;;5093185;27;20431;-56
2022/06/18 11:30:45;;;;;;;;;;;31.50;27.10;;;;;;5103392;27;20415;-56
2022/06/18 11:33:28;;;;;;;;;;;31.60;28.10;;;;;;5078895;28;19917;-56
2022/06/18 11:36:10;;;;;;;;;;;31.70;28.30;;;;;;5122815;27;19916;-55
2022/06/18 11:38:53;;;;;;;;;;;32.00;29.90;;;;;;5085912;27;19913;-56
2022/06/18 11:41:38;;;;;;;;;;;32.10;28.60;;;;;;5124839;27;19926;-55
2022/06/18 11:44:19;;;;;;;;;;;32.10;28.30;;;;;;5163969;27;19975;-56
2022/06/18 11:47:02;;;;;;;;;;;32.20;26.90;;;;;;5123411;27;19912;-56
2022/06/18 11:49:45;;;;;;;;;;;32.30;26.70;;;;;;5102639;27;19927;-55
2022/06/18 11:52:32;;;;;;;;;;;32.30;27.20;;;;;;5120424;27;20284;-56
2022/06/18 11:55:22;;;;;;;;;;;32.20;27.40;;;;;;5112701;27;20570;-56
2022/06/18 11:58:05;;;;;;;;;;;32.20;26.20;;;;;;5111557;27;20197;-55
2022/06/18 12:00:49;;;;;;;;;;;32.30;27.10;;;;;;5081619;28;19916;-55
2022/06/18 12:03:38;;;;;;;;;;;32.40;26.80;;;;;;5123611;27;19912;-56
2022/06/18 12:06:22;;;;;;;;;;;32.40;25.60;;;;;;5102419;27;19926;-55
2022/06/18 12:09:02;;;;;;;;;;;32.50;25.70;;;;;;5123161;27;19912;-56
2022/06/18 12:11:48;;;;;;;;;;;32.70;26.70;;;;;;5097737;27;19926;-56
2022/06/18 12:14:31;;;;;;;;;;;32.70;26.60;;;;;;5104068;27;20296;-56
2022/06/18 12:17:15;;;;;;;;;;;32.80;26.60;;;;;;5095973;27;20427;-55
2022/06/18 12:20:00;;;;;;;;;;;32.80;26.30;;;;;;5120997;27;19930;-56
2022/06/18 12:22:43;;;;;;;;;;;32.90;26.70;;;;;;5099825;27;20518;-56
2022/06/18 12:25:32;;;;;;;;;;;33.00;26.10;;;;;;5100395;27;20282;-56
2022/06/18 12:28:17;;;;;;;;;;;33.10;26.20;;;;;;5110213;27;19912;-56
2022/06/18 12:31:01;;;;;;;;;;;33.20;23.90;;;;;;5121065;27;19916;-55
2022/06/18 12:33:44;;;;;;;;;;;32.90;26.00;;;;;;5135512;27;19912;-55
2022/06/18 12:36:30;;;;;;;;;;;33.10;26.30;;;;;;5121460;27;19911;-57
2022/06/18 12:39:21;;;;;;;;;;;33.30;24.70;;;;;;5097031;27;19965;-56
2022/06/18 12:42:05;;;;;;;;;;;33.30;25.20;;;;;;5097410;27;19912;-55
2022/06/18 12:44:46;;;;;;;;;;;33.40;26.20;;;;;;5150266;27;19911;-56
2022/06/18 12:47:30;;;;;;;;;;;33.60;25.80;;;;;;5101272;27;19916;-56
2022/06/18 12:50:16;;;;;;;;;;;33.70;25.30;;;;;;5121983;27;19915;-56
2022/06/18 12:53:00;;;;;;;;;;;33.70;24.30;;;;;;5119005;27;19924;-56
2022/06/18 12:55:43;;;;;;;;;;;33.60;23.60;;;;;;5120891;27;20273;-56
2022/06/18 12:58:28;;;;;;;;;;;33.50;23.50;;;;;;5087459;27;19912;-56
2022/06/18 13:01:13;;;;;;;;;;;33.50;24.20;;;;;;5102704;27;19957;-56
2022/06/18 13:04:07;;;;;;;;;;;33.60;23.80;;;;;;5106880;27;19919;-56
2022/06/18 13:06:50;;;;;;;;;;;33.70;23.60;;;;;;5120202;27;19924;-56
2022/06/18 13:09:36;;;;;;;;;;;33.80;23.70;;;;;;5082355;27;19931;-56
2022/06/18 13:12:23;;;;;;;;;;;33.90;23.90;;;;;;5103690;27;19931;-56
2022/06/18 13:15:08;;;;;;;;;;;34.20;25.30;;;;;;5102311;27;19950;-56
2022/06/18 13:17:50;;;;;;;;;;;34.30;24.30;;;;;;5115567;27;19954;-56
2022/06/18 13:20:35;;;;;;;;;;;34.30;23.20;;;;;;5103647;27;20355;-56
2022/06/18 13:29:16;;;;;;;;;;;34.40;24.80;;;;;;5099904;27;19920;-56
2022/06/18 13:32:01;;;;;;;;;;;34.50;23.80;;;;;;5079727;28;19912;-56
2022/06/18 13:34:46;;;;;;;;;;;34.60;24.50;;;;;;5130672;27;19923;-56
2022/06/18 13:37:32;;;;;;;;;;;34.70;23.10;;;;;;5113090;27;20434;-56
2022/06/18 13:40:17;;;;;;;;;;;34.60;23.40;;;;;;5122798;27;19915;-56
2022/06/18 13:43:03;;;;;;;;;;;34.70;23.50;;;;;;5118434;27;19922;-56
2022/06/18 13:45:55;;;;;;;;;;;34.70;23.20;;;;;;5122102;27;19911;-55
2022/06/18 13:48:45;;;;;;;;;;;34.70;24.20;;;;;;5107793;27;19916;-58
2022/06/18 13:51:29;;;;;;;;;;;34.80;23.60;;;;;;5117320;27;19911;-56
2022/06/18 13:54:11;;;;;;;;;;;34.80;23.60;;;;;;5103593;27;19912;-56
2022/06/18 13:56:57;;;;;;;;;;;34.70;22.20;;;;;;5106987;27;19949;-56
2022/06/18 13:59:38;;;;;;;;;;;34.70;23.20;;;;;;5083075;28;19920;-56
2022/06/18 14:02:25;;;;;;;;;;;34.90;23.00;;;;;;5119642;27;19912;-56
2022/06/18 14:05:07;;;;;;;;;;;34.90;22.70;;;;;;5101867;27;19929;-58
2022/06/18 14:07:50;;;;;;;;;;;35.00;23.40;;;;;;5073373;27;19920;-57
2022/06/18 14:10:30;;;;;;;;;;;35.20;24.20;;;;;;5154705;27;19915;-56
2022/06/18 14:13:12;;;;;;;;;;;35.00;25.50;;;;;;5125075;27;20365;-56
2022/06/18 14:15:57;;;;;;;;;;;34.90;25.40;;;;;;5122258;27;19912;-56
2022/06/18 14:18:37;;;;;;;;;;;35.00;25.10;;;;;;5106974;27;20482;-56
2022/06/18 14:21:24;;;;;;;;;;;35.00;24.40;;;;;;5123316;27;20369;-57
2022/06/18 14:24:05;;;;;;;;;;;35.10;24.70;;;;;;5143786;27;19915;-56
2022/06/18 14:26:47;;;;;;;;;;;35.20;24.10;;;;;;5120741;27;19919;-57
2022/06/18 14:29:37;;;;;;;;;;;35.30;24.30;;;;;;5120005;27;19916;-57
2022/06/18 14:32:22;;;;;;;;;;;35.30;24.50;;;;;;5122400;27;20380;-56
2022/06/18 14:35:11;;;;;;;;;;;35.50;24.80;;;;;;5121873;27;19912;-56
2022/06/18 14:37:52;;;;;;;;;;;35.70;24.80;;;;;;5143427;27;19915;-55
2022/06/18 14:41:34;;;;;;;;;;;35.90;21.60;;;;;;5111796;27;19912;-56
2022/06/18 14:43:43;;;;;;;;;;;36.10;23.10;;;;;;5118467;27;19911;-58
2022/06/18 14:46:28;;;;;;;;;;;36.30;22.90;;;;;;5121164;27;20396;-58
2022/06/18 14:49:27;;;;;;;;;;;36.30;22.40;;;;;;5104046;27;19916;-57
2022/06/18 14:52:15;;;;;;;;;;;36.50;22.80;;;;;;5118042;27;19920;-56
2022/06/18 14:55:12;;;;;;;;;;;36.50;22.20;;;;;;5123457;27;19917;-55
2022/06/18 14:58:17;;;;;;;;;;;36.60;21.90;;;;;;5113680;27;19915;-57
2022/06/18 15:01:05;;;;;;;;;;;36.70;21.80;;;;;;5122171;27;19953;-55
2022/06/18 15:03:53;;;;;;;;;;;36.70;22.00;;;;;;5082295;27;19912;-56
2022/06/18 15:06:35;;;;;;;;;;;36.50;23.40;;;;;;5154929;27;19924;-56
2022/06/18 15:09:16;;;;;;;;;;;36.40;21.30;;;;;;5082769;28;20316;-56
2022/06/18 15:11:58;;;;;;;;;;;36.50;21.80;;;;;;5144555;27;19927;-55
2022/06/18 15:14:42;;;;;;;;;;;36.60;22.50;;;;;;5124218;27;20292;-55
2022/06/18 15:17:30;;;;;;;;;;;36.80;23.10;;;;;;5079116;28;19917;-56
2022/06/18 15:20:31;;;;;;;;;;;37.10;24.90;;;;;;5112005;27;19916;-56
2022/06/18 15:23:19;;;;;;;;;;;37.30;21.80;;;;;;5098599;27;19912;-56
2022/06/18 15:26:04;;;;;;;;;;;38.60;21.40;;;;;;5088095;27;19950;-56
2022/06/18 15:28:47;;;;;;;;;;;39.70;18.80;;;;;;5066570;27;19921;-58
2022/06/18 15:31:37;;;;;;;;;;;40.50;18.30;;;;;;5104485;27;20157;-56
2022/06/18 15:34:22;;;;;;;;;;;41.20;20.50;;;;;;5121411;27;19915;-56
2022/06/18 15:37:05;;;;;;;;;;;41.50;16.70;;;;;;5096839;27;20332;-57
2022/06/18 15:39:50;;;;;;;;;;;41.70;17.60;;;;;;5113583;27;20041;-57
2022/06/18 15:42:36;;;;;;;;;;;41.80;16.90;;;;;;5102656;27;19912;-56
2022/06/18 15:45:20;;;;;;;;;;;41.90;18.10;;;;;;5081876;28;20316;-57
2022/06/18 15:48:01;;;;;;;;;;;41.60;18.30;;;;;;5093350;27;19931;-55
2022/06/18 15:50:41;;;;;;;;;;;41.60;18.70;;;;;;5081167;28;19920;-58
2022/06/18 15:53:24;;;;;;;;;;;41.30;18.90;;;;;;5104811;27;20430;-55
2022/06/18 15:56:09;;;;;;;;;;;41.40;18.90;;;;;;5120374;27;20187;-55
2022/06/18 15:58:50;;;;;;;;;;;41.70;19.70;;;;;;5138681;27;20376;-57
2022/06/18 16:01:31;;;;;;;;;;;41.60;18.70;;;;;;5122419;27;19915;-56
2022/06/18 16:04:11;;;;;;;;;;;41.10;18.70;;;;;;5091283;28;19912;-56
2022/06/18 16:06:52;;;;;;;;;;;41.20;20.50;;;;;;5121857;27;20400;-56
2022/06/18 16:09:42;;;;;;;;;;;41.50;19.60;;;;;;5102506;27;19920;-55
2022/06/18 16:12:34;;;;;;;;;;;41.60;20.50;;;;;;5082391;28;19913;-55
2022/06/18 16:15:28;;;;;;;;;;;41.60;19.10;;;;;;5083041;28;19913;-55